sensor_id;sensor_type;location;lat;lon;timestamp;P1;durP1;ratioP1;P2;durP2;ratioP2
72797;SDS011;61084;55.816;37.036;2023-08-06T00:00:11;17.13;;;9.32;;
72797;SDS011;61084;55.816;37.036;2023-08-06T00:02:37;19.27;;;9.38;;
72797;SDS011;61084;55.816;37.036;2023-08-06T00:05:03;20.58;;;8.52;;
72797;SDS011;61084;55.816;37.036;2023-08-06T00:07:31;18.73;;;9.35;;
72797;SDS011;61084;55.816;37.036;2023-08-06T00:09:57;16.48;;;9.35;;
72797;SDS011;61084;55.816;37.036;2023-08-06T00:12:23;13.77;;;8.38;;
72797;SDS011;61084;55.816;37.036;2023-08-06T00:14:52;19.40;;;9.38;;
72797;SDS011;61084;55.816;37.036;2023-08-06T00:17:19;20.73;;;8.40;;
72797;SDS011;61084;55.816;37.036;2023-08-06T00:19:46;17.45;;;9.68;;
72797;SDS011;61084;55.816;37.036;2023-08-06T00:22:12;17.55;;;9.07;;
72797;SDS011;61084;55.816;37.036;2023-08-06T00:24:38;15.65;;;8.52;;
72797;SDS011;61084;55.816;37.036;2023-08-06T00:27:03;17.48;;;8.70;;
72797;SDS011;61084;55.816;37.036;2023-08-06T00:29:29;17.98;;;9.50;;
72797;SDS011;61084;55.816;37.036;2023-08-06T00:31:55;11.95;;;7.97;;
72797;SDS011;61084;55.816;37.036;2023-08-06T00:34:21;14.88;;;8.32;;
72797;SDS011;61084;55.816;37.036;2023-08-06T00:36:47;21.38;;;8.63;;
72797;SDS011;61084;55.816;37.036;2023-08-06T00:39:13;18.60;;;8.07;;
72797;SDS011;61084;55.816;37.036;2023-08-06T00:41:39;15.43;;;8.55;;
72797;SDS011;61084;55.816;37.036;2023-08-06T00:44:05;16.13;;;8.80;;
72797;SDS011;61084;55.816;37.036;2023-08-06T00:46:32;21.27;;;10.80;;
72797;SDS011;61084;55.816;37.036;2023-08-06T00:48:59;17.48;;;9.82;;
72797;SDS011;61084;55.816;37.036;2023-08-06T00:51:25;15.57;;;9.13;;
72797;SDS011;61084;55.816;37.036;2023-08-06T00:53:52;15.23;;;8.57;;
72797;SDS011;61084;55.816;37.036;2023-08-06T00:58:44;16.55;;;8.02;;
72797;SDS011;61084;55.816;37.036;2023-08-06T01:01:11;13.00;;;8.00;;
72797;SDS011;61084;55.816;37.036;2023-08-06T01:03:36;15.80;;;8.48;;
72797;SDS011;61084;55.816;37.036;2023-08-06T01:06:02;13.27;;;7.88;;
72797;SDS011;61084;55.816;37.036;2023-08-06T01:13:45;13.43;;;8.15;;
72797;SDS011;61084;55.816;37.036;2023-08-06T01:16:18;16.13;;;8.50;;
72797;SDS011;61084;55.816;37.036;2023-08-06T01:18:49;13.40;;;7.82;;
72797;SDS011;61084;55.816;37.036;2023-08-06T01:21:15;15.77;;;8.10;;
72797;SDS011;61084;55.816;37.036;2023-08-06T01:23:42;17.38;;;8.23;;
72797;SDS011;61084;55.816;37.036;2023-08-06T01:26:14;23.40;;;10.77;;
72797;SDS011;61084;55.816;37.036;2023-08-06T01:31:37;18.58;;;8.93;;
72797;SDS011;61084;55.816;37.036;2023-08-06T01:34:06;17.63;;;7.90;;
72797;SDS011;61084;55.816;37.036;2023-08-06T01:36:36;15.30;;;8.30;;
72797;SDS011;61084;55.816;37.036;2023-08-06T01:39:02;13.82;;;7.93;;
72797;SDS011;61084;55.816;37.036;2023-08-06T01:41:30;16.13;;;7.68;;
72797;SDS011;61084;55.816;37.036;2023-08-06T01:43:57;14.38;;;7.90;;
72797;SDS011;61084;55.816;37.036;2023-08-06T01:46:22;13.73;;;8.07;;
72797;SDS011;61084;55.816;37.036;2023-08-06T01:48:49;11.93;;;7.28;;
72797;SDS011;61084;55.816;37.036;2023-08-06T01:51:15;12.20;;;7.97;;
72797;SDS011;61084;55.816;37.036;2023-08-06T01:53:41;14.27;;;7.93;;
72797;SDS011;61084;55.816;37.036;2023-08-06T01:56:06;18.60;;;8.85;;
72797;SDS011;61084;55.816;37.036;2023-08-06T01:58:32;12.98;;;7.95;;
72797;SDS011;61084;55.816;37.036;2023-08-06T02:00:58;15.65;;;7.88;;
72797;SDS011;61084;55.816;37.036;2023-08-06T02:03:24;12.88;;;8.13;;
72797;SDS011;61084;55.816;37.036;2023-08-06T02:05:50;12.90;;;7.68;;
72797;SDS011;61084;55.816;37.036;2023-08-06T02:08:16;12.90;;;6.88;;
72797;SDS011;61084;55.816;37.036;2023-08-06T02:10:42;11.48;;;7.00;;
72797;SDS011;61084;55.816;37.036;2023-08-06T02:13:07;13.45;;;7.13;;
72797;SDS011;61084;55.816;37.036;2023-08-06T02:15:33;15.40;;;8.02;;
72797;SDS011;61084;55.816;37.036;2023-08-06T02:17:59;13.98;;;7.30;;
72797;SDS011;61084;55.816;37.036;2023-08-06T02:20:55;19.45;;;7.45;;
72797;SDS011;61084;55.816;37.036;2023-08-06T02:23:24;16.08;;;7.70;;
72797;SDS011;61084;55.816;37.036;2023-08-06T02:26:00;16.42;;;8.35;;
72797;SDS011;61084;55.816;37.036;2023-08-06T02:28:28;23.50;;;8.02;;
72797;SDS011;61084;55.816;37.036;2023-08-06T02:30:54;14.77;;;8.77;;
72797;SDS011;61084;55.816;37.036;2023-08-06T02:33:20;14.25;;;7.25;;
72797;SDS011;61084;55.816;37.036;2023-08-06T02:35:47;15.73;;;7.97;;
72797;SDS011;61084;55.816;37.036;2023-08-06T02:38:14;12.38;;;7.22;;
72797;SDS011;61084;55.816;37.036;2023-08-06T02:40:47;20.05;;;8.55;;
72797;SDS011;61084;55.816;37.036;2023-08-06T02:43:13;14.85;;;8.60;;
72797;SDS011;61084;55.816;37.036;2023-08-06T02:45:40;15.13;;;8.10;;
72797;SDS011;61084;55.816;37.036;2023-08-06T02:48:06;14.68;;;7.90;;
72797;SDS011;61084;55.816;37.036;2023-08-06T02:50:37;16.38;;;7.50;;
72797;SDS011;61084;55.816;37.036;2023-08-06T02:53:05;11.02;;;7.25;;
72797;SDS011;61084;55.816;37.036;2023-08-06T02:55:32;16.05;;;7.40;;
72797;SDS011;61084;55.816;37.036;2023-08-06T02:58:00;12.32;;;7.68;;
72797;SDS011;61084;55.816;37.036;2023-08-06T03:00:29;19.52;;;11.35;;
72797;SDS011;61084;55.816;37.036;2023-08-06T03:02:55;14.85;;;8.10;;
72797;SDS011;61084;55.816;37.036;2023-08-06T03:05:28;14.82;;;8.43;;
72797;SDS011;61084;55.816;37.036;2023-08-06T03:07:54;14.90;;;7.88;;
72797;SDS011;61084;55.816;37.036;2023-08-06T03:10:24;16.60;;;7.38;;
72797;SDS011;61084;55.816;37.036;2023-08-06T03:12:52;12.18;;;7.32;;
72797;SDS011;61084;55.816;37.036;2023-08-06T03:15:19;16.35;;;7.35;;
72797;SDS011;61084;55.816;37.036;2023-08-06T03:17:46;13.93;;;7.57;;
72797;SDS011;61084;55.816;37.036;2023-08-06T03:20:13;15.50;;;7.20;;
72797;SDS011;61084;55.816;37.036;2023-08-06T03:22:39;15.10;;;7.20;;
72797;SDS011;61084;55.816;37.036;2023-08-06T03:25:09;11.45;;;7.32;;
72797;SDS011;61084;55.816;37.036;2023-08-06T03:27:36;12.50;;;7.38;;
72797;SDS011;61084;55.816;37.036;2023-08-06T03:30:02;14.10;;;7.28;;
72797;SDS011;61084;55.816;37.036;2023-08-06T03:32:31;14.13;;;7.07;;
72797;SDS011;61084;55.816;37.036;2023-08-06T03:34:59;11.73;;;7.43;;
72797;SDS011;61084;55.816;37.036;2023-08-06T03:37:30;15.55;;;7.07;;
72797;SDS011;61084;55.816;37.036;2023-08-06T03:39:56;13.38;;;7.45;;
72797;SDS011;61084;55.816;37.036;2023-08-06T03:42:22;11.43;;;7.35;;
72797;SDS011;61084;55.816;37.036;2023-08-06T03:44:48;14.10;;;6.88;;
72797;SDS011;61084;55.816;37.036;2023-08-06T03:47:14;16.00;;;7.07;;
72797;SDS011;61084;55.816;37.036;2023-08-06T03:49:40;11.35;;;6.60;;
72797;SDS011;61084;55.816;37.036;2023-08-06T03:52:07;12.80;;;6.70;;
72797;SDS011;61084;55.816;37.036;2023-08-06T03:54:33;11.07;;;6.53;;
72797;SDS011;61084;55.816;37.036;2023-08-06T03:56:59;11.77;;;7.13;;
72797;SDS011;61084;55.816;37.036;2023-08-06T03:59:25;10.10;;;6.93;;
72797;SDS011;61084;55.816;37.036;2023-08-06T04:01:51;10.15;;;6.28;;
72797;SDS011;61084;55.816;37.036;2023-08-06T04:04:17;11.75;;;6.45;;
72797;SDS011;61084;55.816;37.036;2023-08-06T04:06:42;9.75;;;6.65;;
72797;SDS011;61084;55.816;37.036;2023-08-06T04:09:08;11.88;;;6.50;;
72797;SDS011;61084;55.816;37.036;2023-08-06T04:11:34;15.27;;;6.90;;
72797;SDS011;61084;55.816;37.036;2023-08-06T04:14:02;12.20;;;6.20;;
72797;SDS011;61084;55.816;37.036;2023-08-06T04:16:29;12.35;;;6.45;;
72797;SDS011;61084;55.816;37.036;2023-08-06T04:18:55;13.68;;;6.20;;
72797;SDS011;61084;55.816;37.036;2023-08-06T04:21:21;11.85;;;6.40;;
72797;SDS011;61084;55.816;37.036;2023-08-06T04:23:47;13.23;;;6.38;;
72797;SDS011;61084;55.816;37.036;2023-08-06T04:26:13;10.80;;;6.30;;
72797;SDS011;61084;55.816;37.036;2023-08-06T04:28:40;13.38;;;6.45;;
72797;SDS011;61084;55.816;37.036;2023-08-06T04:33:33;9.90;;;5.88;;
72797;SDS011;61084;55.816;37.036;2023-08-06T04:36:03;10.10;;;5.72;;
72797;SDS011;61084;55.816;37.036;2023-08-06T04:38:30;13.32;;;5.97;;
72797;SDS011;61084;55.816;37.036;2023-08-06T04:40:57;10.43;;;5.95;;
72797;SDS011;61084;55.816;37.036;2023-08-06T04:43:24;11.77;;;6.15;;
72797;SDS011;61084;55.816;37.036;2023-08-06T04:45:51;10.77;;;6.22;;
72797;SDS011;61084;55.816;37.036;2023-08-06T04:48:18;9.23;;;6.32;;
72797;SDS011;61084;55.816;37.036;2023-08-06T04:50:44;13.55;;;6.53;;
72797;SDS011;61084;55.816;37.036;2023-08-06T04:53:11;16.65;;;6.13;;
72797;SDS011;61084;55.816;37.036;2023-08-06T04:55:37;14.65;;;6.22;;
72797;SDS011;61084;55.816;37.036;2023-08-06T05:00:29;13.27;;;5.85;;
72797;SDS011;61084;55.816;37.036;2023-08-06T05:02:54;14.05;;;7.45;;
72797;SDS011;61084;55.816;37.036;2023-08-06T05:05:20;14.32;;;6.70;;
72797;SDS011;61084;55.816;37.036;2023-08-06T05:12:39;21.55;;;6.90;;
72797;SDS011;61084;55.816;37.036;2023-08-06T05:15:05;14.90;;;7.45;;
72797;SDS011;61084;55.816;37.036;2023-08-06T05:17:31;13.77;;;6.60;;
72797;SDS011;61084;55.816;37.036;2023-08-06T05:19:57;12.68;;;8.25;;
72797;SDS011;61084;55.816;37.036;2023-08-06T05:22:23;15.38;;;6.80;;
72797;SDS011;61084;55.816;37.036;2023-08-06T05:24:49;9.85;;;6.63;;
72797;SDS011;61084;55.816;37.036;2023-08-06T05:27:14;14.02;;;7.85;;
72797;SDS011;61084;55.816;37.036;2023-08-06T05:29:40;8.98;;;6.07;;
72797;SDS011;61084;55.816;37.036;2023-08-06T05:34:32;11.93;;;6.20;;
72797;SDS011;61084;55.816;37.036;2023-08-06T05:39:23;10.50;;;6.13;;
72797;SDS011;61084;55.816;37.036;2023-08-06T05:41:49;15.40;;;6.20;;
72797;SDS011;61084;55.816;37.036;2023-08-06T05:44:15;9.25;;;5.65;;
72797;SDS011;61084;55.816;37.036;2023-08-06T05:49:07;11.60;;;5.28;;
72797;SDS011;61084;55.816;37.036;2023-08-06T05:53:58;7.88;;;5.30;;
72797;SDS011;61084;55.816;37.036;2023-08-06T05:56:24;9.95;;;6.18;;
72797;SDS011;61084;55.816;37.036;2023-08-06T05:58:50;8.85;;;5.82;;
72797;SDS011;61084;55.816;37.036;2023-08-06T06:01:18;10.57;;;5.60;;
72797;SDS011;61084;55.816;37.036;2023-08-06T06:03:44;7.97;;;5.30;;
72797;SDS011;61084;55.816;37.036;2023-08-06T06:08:36;8.57;;;5.20;;
72797;SDS011;61084;55.816;37.036;2023-08-06T06:11:02;9.68;;;6.55;;
72797;SDS011;61084;55.816;37.036;2023-08-06T06:13:28;7.38;;;5.53;;
72797;SDS011;61084;55.816;37.036;2023-08-06T06:18:19;6.60;;;4.78;;
72797;SDS011;61084;55.816;37.036;2023-08-06T06:20:45;8.88;;;4.97;;
72797;SDS011;61084;55.816;37.036;2023-08-06T06:23:11;7.05;;;4.78;;
72797;SDS011;61084;55.816;37.036;2023-08-06T06:28:07;10.27;;;4.65;;
72797;SDS011;61084;55.816;37.036;2023-08-06T06:30:32;7.78;;;4.75;;
72797;SDS011;61084;55.816;37.036;2023-08-06T06:32:58;7.50;;;4.82;;
72797;SDS011;61084;55.816;37.036;2023-08-06T06:35:24;8.45;;;4.53;;
72797;SDS011;61084;55.816;37.036;2023-08-06T06:37:50;10.23;;;4.65;;
72797;SDS011;61084;55.816;37.036;2023-08-06T06:40:16;6.10;;;4.38;;
72797;SDS011;61084;55.816;37.036;2023-08-06T06:42:42;6.03;;;4.20;;
72797;SDS011;61084;55.816;37.036;2023-08-06T06:45:09;8.27;;;4.55;;
72797;SDS011;61084;55.816;37.036;2023-08-06T06:47:35;11.55;;;4.53;;
72797;SDS011;61084;55.816;37.036;2023-08-06T06:50:00;11.68;;;4.85;;
72797;SDS011;61084;55.816;37.036;2023-08-06T06:52:27;8.63;;;4.28;;
72797;SDS011;61084;55.816;37.036;2023-08-06T06:54:52;10.73;;;4.80;;
72797;SDS011;61084;55.816;37.036;2023-08-06T06:57:18;9.13;;;4.72;;
72797;SDS011;61084;55.816;37.036;2023-08-06T06:59:44;4.63;;;3.88;;
72797;SDS011;61084;55.816;37.036;2023-08-06T07:02:10;9.75;;;4.28;;
72797;SDS011;61084;55.816;37.036;2023-08-06T07:04:36;6.35;;;4.28;;
72797;SDS011;61084;55.816;37.036;2023-08-06T07:07:01;10.60;;;3.85;;
72797;SDS011;61084;55.816;37.036;2023-08-06T07:09:27;9.05;;;3.97;;
72797;SDS011;61084;55.816;37.036;2023-08-06T07:11:53;6.07;;;4.03;;
72797;SDS011;61084;55.816;37.036;2023-08-06T07:14:19;6.20;;;4.03;;
72797;SDS011;61084;55.816;37.036;2023-08-06T07:16:45;6.40;;;3.92;;
72797;SDS011;61084;55.816;37.036;2023-08-06T07:19:10;7.20;;;4.00;;
72797;SDS011;61084;55.816;37.036;2023-08-06T07:21:36;5.70;;;3.90;;
72797;SDS011;61084;55.816;37.036;2023-08-06T07:24:02;10.15;;;4.20;;
72797;SDS011;61084;55.816;37.036;2023-08-06T07:26:28;9.02;;;3.88;;
72797;SDS011;61084;55.816;37.036;2023-08-06T07:28:54;5.50;;;3.70;;
72797;SDS011;61084;55.816;37.036;2023-08-06T07:31:20;7.50;;;3.72;;
72797;SDS011;61084;55.816;37.036;2023-08-06T07:33:46;6.05;;;4.03;;
72797;SDS011;61084;55.816;37.036;2023-08-06T07:36:12;5.18;;;3.92;;
72797;SDS011;61084;55.816;37.036;2023-08-06T07:38:39;5.80;;;3.45;;
72797;SDS011;61084;55.816;37.036;2023-08-06T07:41:06;8.20;;;3.70;;
72797;SDS011;61084;55.816;37.036;2023-08-06T07:43:31;6.20;;;3.53;;
72797;SDS011;61084;55.816;37.036;2023-08-06T07:46:00;4.80;;;3.17;;
72797;SDS011;61084;55.816;37.036;2023-08-06T07:48:29;4.93;;;3.55;;
72797;SDS011;61084;55.816;37.036;2023-08-06T07:50:55;9.40;;;4.60;;
72797;SDS011;61084;55.816;37.036;2023-08-06T07:53:21;5.68;;;3.30;;
72797;SDS011;61084;55.816;37.036;2023-08-06T07:55:51;5.55;;;3.50;;
72797;SDS011;61084;55.816;37.036;2023-08-06T07:58:17;5.88;;;3.75;;
72797;SDS011;61084;55.816;37.036;2023-08-06T08:00:44;4.68;;;3.90;;
72797;SDS011;61084;55.816;37.036;2023-08-06T08:03:11;9.60;;;3.45;;
72797;SDS011;61084;55.816;37.036;2023-08-06T08:05:41;8.25;;;3.20;;
72797;SDS011;61084;55.816;37.036;2023-08-06T08:08:08;5.90;;;3.42;;
72797;SDS011;61084;55.816;37.036;2023-08-06T08:10:34;5.00;;;3.15;;
72797;SDS011;61084;55.816;37.036;2023-08-06T08:13:02;6.90;;;3.50;;
72797;SDS011;61084;55.816;37.036;2023-08-06T08:15:29;9.57;;;3.75;;
72797;SDS011;61084;55.816;37.036;2023-08-06T08:17:55;4.80;;;3.70;;
72797;SDS011;61084;55.816;37.036;2023-08-06T08:20:21;7.30;;;3.83;;
72797;SDS011;61084;55.816;37.036;2023-08-06T08:22:48;5.60;;;3.80;;
72797;SDS011;61084;55.816;37.036;2023-08-06T08:25:15;4.72;;;3.60;;
72797;SDS011;61084;55.816;37.036;2023-08-06T08:27:41;7.88;;;3.75;;
72797;SDS011;61084;55.816;37.036;2023-08-06T08:30:07;8.20;;;3.58;;
72797;SDS011;61084;55.816;37.036;2023-08-06T08:32:33;13.10;;;4.57;;
72797;SDS011;61084;55.816;37.036;2023-08-06T08:34:59;24.50;;;6.78;;
72797;SDS011;61084;55.816;37.036;2023-08-06T08:37:25;7.72;;;4.15;;
72797;SDS011;61084;55.816;37.036;2023-08-06T08:39:51;21.27;;;7.03;;
72797;SDS011;61084;55.816;37.036;2023-08-06T08:42:18;6.22;;;3.78;;
72797;SDS011;61084;55.816;37.036;2023-08-06T08:44:45;8.25;;;4.45;;
72797;SDS011;61084;55.816;37.036;2023-08-06T08:47:11;5.63;;;4.20;;
72797;SDS011;61084;55.816;37.036;2023-08-06T08:49:38;13.60;;;5.30;;
72797;SDS011;61084;55.816;37.036;2023-08-06T08:52:04;8.20;;;4.30;;
72797;SDS011;61084;55.816;37.036;2023-08-06T08:54:32;8.18;;;4.40;;
72797;SDS011;61084;55.816;37.036;2023-08-06T08:56:59;11.75;;;3.97;;
72797;SDS011;61084;55.816;37.036;2023-08-06T08:59:25;7.93;;;4.28;;
72797;SDS011;61084;55.816;37.036;2023-08-06T09:01:52;5.40;;;3.63;;
72797;SDS011;61084;55.816;37.036;2023-08-06T09:04:20;7.13;;;4.38;;
72797;SDS011;61084;55.816;37.036;2023-08-06T09:06:47;8.13;;;3.88;;
72797;SDS011;61084;55.816;37.036;2023-08-06T09:09:26;12.02;;;5.25;;
72797;SDS011;61084;55.816;37.036;2023-08-06T09:11:57;18.38;;;5.72;;
72797;SDS011;61084;55.816;37.036;2023-08-06T09:14:27;10.45;;;4.95;;
72797;SDS011;61084;55.816;37.036;2023-08-06T09:16:54;50.65;;;12.23;;
72797;SDS011;61084;55.816;37.036;2023-08-06T09:19:20;10.05;;;5.18;;
72797;SDS011;61084;55.816;37.036;2023-08-06T09:21:46;9.30;;;5.15;;
72797;SDS011;61084;55.816;37.036;2023-08-06T09:24:14;6.40;;;4.50;;
72797;SDS011;61084;55.816;37.036;2023-08-06T09:26:42;10.75;;;4.63;;
72797;SDS011;61084;55.816;37.036;2023-08-06T09:29:10;6.95;;;4.63;;
72797;SDS011;61084;55.816;37.036;2023-08-06T09:31:43;6.60;;;4.65;;
72797;SDS011;61084;55.816;37.036;2023-08-06T09:34:17;6.22;;;4.80;;
72797;SDS011;61084;55.816;37.036;2023-08-06T09:36:46;10.50;;;4.70;;
72797;SDS011;61084;55.816;37.036;2023-08-06T09:39:16;9.15;;;4.60;;
72797;SDS011;61084;55.816;37.036;2023-08-06T09:41:43;6.82;;;4.70;;
72797;SDS011;61084;55.816;37.036;2023-08-06T09:44:17;5.65;;;4.43;;
72797;SDS011;61084;55.816;37.036;2023-08-06T09:49:27;9.20;;;4.80;;
72797;SDS011;61084;55.816;37.036;2023-08-06T09:51:59;6.45;;;4.72;;
72797;SDS011;61084;55.816;37.036;2023-08-06T09:54:26;13.20;;;4.85;;
72797;SDS011;61084;55.816;37.036;2023-08-06T09:56:53;7.13;;;4.55;;
72797;SDS011;61084;55.816;37.036;2023-08-06T09:59:20;8.93;;;4.40;;
72797;SDS011;61084;55.816;37.036;2023-08-06T10:01:46;13.80;;;5.30;;
72797;SDS011;61084;55.816;37.036;2023-08-06T10:04:13;5.85;;;4.07;;
72797;SDS011;61084;55.816;37.036;2023-08-06T10:06:42;5.63;;;4.20;;
72797;SDS011;61084;55.816;37.036;2023-08-06T10:09:11;7.60;;;4.50;;
72797;SDS011;61084;55.816;37.036;2023-08-06T10:11:38;6.10;;;5.03;;
72797;SDS011;61084;55.816;37.036;2023-08-06T10:14:21;8.23;;;4.22;;
72797;SDS011;61084;55.816;37.036;2023-08-06T10:16:52;4.97;;;3.92;;
72797;SDS011;61084;55.816;37.036;2023-08-06T10:19:22;7.63;;;4.65;;
72797;SDS011;61084;55.816;37.036;2023-08-06T10:27:22;10.68;;;4.95;;
72797;SDS011;61084;55.816;37.036;2023-08-06T10:29:55;5.32;;;4.00;;
72797;SDS011;61084;55.816;37.036;2023-08-06T10:32:21;8.18;;;4.57;;
72797;SDS011;61084;55.816;37.036;2023-08-06T10:34:57;13.10;;;7.72;;
72797;SDS011;61084;55.816;37.036;2023-08-06T10:37:25;18.08;;;7.22;;
72797;SDS011;61084;55.816;37.036;2023-08-06T10:40:01;8.48;;;4.93;;
72797;SDS011;61084;55.816;37.036;2023-08-06T10:42:30;7.72;;;4.45;;
72797;SDS011;61084;55.816;37.036;2023-08-06T10:45:16;7.22;;;4.38;;
72797;SDS011;61084;55.816;37.036;2023-08-06T10:47:43;7.50;;;4.43;;
72797;SDS011;61084;55.816;37.036;2023-08-06T10:50:16;8.40;;;4.28;;
72797;SDS011;61084;55.816;37.036;2023-08-06T10:52:43;8.20;;;4.13;;
72797;SDS011;61084;55.816;37.036;2023-08-06T10:55:10;8.80;;;4.80;;
72797;SDS011;61084;55.816;37.036;2023-08-06T10:57:36;10.05;;;4.85;;
72797;SDS011;61084;55.816;37.036;2023-08-06T11:00:06;7.07;;;4.53;;
72797;SDS011;61084;55.816;37.036;2023-08-06T11:02:34;11.15;;;4.70;;
72797;SDS011;61084;55.816;37.036;2023-08-06T11:05:08;6.03;;;4.28;;
72797;SDS011;61084;55.816;37.036;2023-08-06T11:07:35;7.25;;;5.03;;
72797;SDS011;61084;55.816;37.036;2023-08-06T11:10:07;7.90;;;4.57;;
72797;SDS011;61084;55.816;37.036;2023-08-06T11:12:35;9.52;;;4.82;;
72797;SDS011;61084;55.816;37.036;2023-08-06T11:15:04;7.93;;;4.50;;
72797;SDS011;61084;55.816;37.036;2023-08-06T11:17:33;6.50;;;4.43;;
72797;SDS011;61084;55.816;37.036;2023-08-06T11:20:01;7.95;;;4.72;;
72797;SDS011;61084;55.816;37.036;2023-08-06T11:22:32;6.90;;;4.70;;
72797;SDS011;61084;55.816;37.036;2023-08-06T11:24:58;6.70;;;4.68;;
72797;SDS011;61084;55.816;37.036;2023-08-06T11:27:28;10.07;;;5.18;;
72797;SDS011;61084;55.816;37.036;2023-08-06T11:29:55;6.03;;;4.93;;
72797;SDS011;61084;55.816;37.036;2023-08-06T11:32:21;9.23;;;4.82;;
72797;SDS011;61084;55.816;37.036;2023-08-06T11:34:47;6.50;;;4.95;;
72797;SDS011;61084;55.816;37.036;2023-08-06T11:37:13;7.85;;;4.85;;
72797;SDS011;61084;55.816;37.036;2023-08-06T11:39:39;6.75;;;5.05;;
72797;SDS011;61084;55.816;37.036;2023-08-06T11:42:12;5.95;;;5.18;;
72797;SDS011;61084;55.816;37.036;2023-08-06T11:44:38;8.88;;;5.05;;
72797;SDS011;61084;55.816;37.036;2023-08-06T11:47:17;9.65;;;5.70;;
72797;SDS011;61084;55.816;37.036;2023-08-06T11:49:47;9.60;;;4.95;;
72797;SDS011;61084;55.816;37.036;2023-08-06T11:52:19;5.68;;;4.90;;
72797;SDS011;61084;55.816;37.036;2023-08-06T11:54:47;8.40;;;4.72;;
72797;SDS011;61084;55.816;37.036;2023-08-06T11:57:14;5.75;;;5.20;;
72797;SDS011;61084;55.816;37.036;2023-08-06T11:59:41;7.70;;;4.95;;
72797;SDS011;61084;55.816;37.036;2023-08-06T12:02:09;8.32;;;4.82;;
72797;SDS011;61084;55.816;37.036;2023-08-06T12:07:38;7.90;;;5.13;;
72797;SDS011;61084;55.816;37.036;2023-08-06T12:10:06;10.52;;;5.10;;
72797;SDS011;61084;55.816;37.036;2023-08-06T12:12:32;9.27;;;4.88;;
72797;SDS011;61084;55.816;37.036;2023-08-06T12:14:57;6.28;;;4.57;;
72797;SDS011;61084;55.816;37.036;2023-08-06T12:17:24;5.82;;;4.22;;
72797;SDS011;61084;55.816;37.036;2023-08-06T12:19:50;6.18;;;4.10;;
72797;SDS011;61084;55.816;37.036;2023-08-06T12:22:16;10.35;;;4.68;;
72797;SDS011;61084;55.816;37.036;2023-08-06T12:24:43;5.35;;;4.43;;
72797;SDS011;61084;55.816;37.036;2023-08-06T12:27:09;5.88;;;4.60;;
72797;SDS011;61084;55.816;37.036;2023-08-06T12:29:36;9.57;;;4.70;;
72797;SDS011;61084;55.816;37.036;2023-08-06T12:32:06;9.07;;;4.72;;
72797;SDS011;61084;55.816;37.036;2023-08-06T12:34:31;6.78;;;5.03;;
72797;SDS011;61084;55.816;37.036;2023-08-06T12:36:57;8.63;;;4.70;;
72797;SDS011;61084;55.816;37.036;2023-08-06T12:39:23;8.10;;;4.43;;
72797;SDS011;61084;55.816;37.036;2023-08-06T12:41:49;8.52;;;4.55;;
72797;SDS011;61084;55.816;37.036;2023-08-06T12:44:15;8.70;;;5.20;;
72797;SDS011;61084;55.816;37.036;2023-08-06T12:46:41;8.38;;;4.85;;
72797;SDS011;61084;55.816;37.036;2023-08-06T12:49:07;7.85;;;4.97;;
72797;SDS011;61084;55.816;37.036;2023-08-06T12:51:32;6.72;;;4.80;;
72797;SDS011;61084;55.816;37.036;2023-08-06T12:54:00;6.53;;;4.25;;
72797;SDS011;61084;55.816;37.036;2023-08-06T12:56:26;7.85;;;4.75;;
72797;SDS011;61084;55.816;37.036;2023-08-06T12:58:52;7.55;;;4.90;;
72797;SDS011;61084;55.816;37.036;2023-08-06T13:01:18;6.10;;;4.57;;
72797;SDS011;61084;55.816;37.036;2023-08-06T13:03:44;5.88;;;4.50;;
72797;SDS011;61084;55.816;37.036;2023-08-06T13:06:09;7.90;;;4.95;;
72797;SDS011;61084;55.816;37.036;2023-08-06T13:08:36;7.38;;;4.75;;
72797;SDS011;61084;55.816;37.036;2023-08-06T13:11:02;9.25;;;4.80;;
72797;SDS011;61084;55.816;37.036;2023-08-06T13:13:27;7.32;;;4.70;;
72797;SDS011;61084;55.816;37.036;2023-08-06T13:15:53;7.60;;;4.90;;
72797;SDS011;61084;55.816;37.036;2023-08-06T13:18:19;6.55;;;5.00;;
72797;SDS011;61084;55.816;37.036;2023-08-06T13:20:45;7.72;;;4.57;;
72797;SDS011;61084;55.816;37.036;2023-08-06T13:23:12;6.13;;;4.68;;
72797;SDS011;61084;55.816;37.036;2023-08-06T13:25:41;7.28;;;5.18;;
72797;SDS011;61084;55.816;37.036;2023-08-06T13:28:07;9.88;;;4.70;;
72797;SDS011;61084;55.816;37.036;2023-08-06T13:30:33;8.88;;;5.07;;
72797;SDS011;61084;55.816;37.036;2023-08-06T13:33:01;6.32;;;4.20;;
72797;SDS011;61084;55.816;37.036;2023-08-06T13:35:27;6.38;;;4.82;;
72797;SDS011;61084;55.816;37.036;2023-08-06T13:37:52;8.15;;;4.53;;
72797;SDS011;61084;55.816;37.036;2023-08-06T13:40:19;8.63;;;4.60;;
72797;SDS011;61084;55.816;37.036;2023-08-06T13:42:45;8.45;;;4.43;;
72797;SDS011;61084;55.816;37.036;2023-08-06T13:45:11;12.02;;;4.40;;
72797;SDS011;61084;55.816;37.036;2023-08-06T13:47:37;8.85;;;4.47;;
72797;SDS011;61084;55.816;37.036;2023-08-06T13:50:03;5.68;;;4.50;;
72797;SDS011;61084;55.816;37.036;2023-08-06T13:52:30;8.35;;;5.13;;
72797;SDS011;61084;55.816;37.036;2023-08-06T13:54:56;10.07;;;4.88;;
72797;SDS011;61084;55.816;37.036;2023-08-06T13:57:22;7.32;;;4.00;;
72797;SDS011;61084;55.816;37.036;2023-08-06T13:59:48;9.52;;;4.80;;
72797;SDS011;61084;55.816;37.036;2023-08-06T14:02:14;6.18;;;4.13;;
72797;SDS011;61084;55.816;37.036;2023-08-06T14:04:40;9.65;;;4.55;;
72797;SDS011;61084;55.816;37.036;2023-08-06T14:07:05;7.88;;;4.25;;
72797;SDS011;61084;55.816;37.036;2023-08-06T14:09:31;8.90;;;4.95;;
72797;SDS011;61084;55.816;37.036;2023-08-06T14:11:57;8.90;;;4.82;;
72797;SDS011;61084;55.816;37.036;2023-08-06T14:14:23;14.02;;;4.85;;
72797;SDS011;61084;55.816;37.036;2023-08-06T14:16:52;10.07;;;4.78;;
72797;SDS011;61084;55.816;37.036;2023-08-06T14:19:18;8.88;;;4.70;;
72797;SDS011;61084;55.816;37.036;2023-08-06T14:21:45;5.78;;;4.00;;
72797;SDS011;61084;55.816;37.036;2023-08-06T14:24:10;10.15;;;4.63;;
72797;SDS011;61084;55.816;37.036;2023-08-06T14:26:36;7.65;;;4.72;;
72797;SDS011;61084;55.816;37.036;2023-08-06T14:29:02;6.60;;;4.38;;
72797;SDS011;61084;55.816;37.036;2023-08-06T14:31:28;8.32;;;4.50;;
72797;SDS011;61084;55.816;37.036;2023-08-06T14:33:54;10.70;;;4.72;;
72797;SDS011;61084;55.816;37.036;2023-08-06T14:36:20;9.52;;;4.30;;
72797;SDS011;61084;55.816;37.036;2023-08-06T14:38:46;6.28;;;3.80;;
72797;SDS011;61084;55.816;37.036;2023-08-06T14:41:12;9.68;;;4.78;;
72797;SDS011;61084;55.816;37.036;2023-08-06T14:43:38;8.65;;;4.45;;
72797;SDS011;61084;55.816;37.036;2023-08-06T14:46:04;9.50;;;4.63;;
72797;SDS011;61084;55.816;37.036;2023-08-06T14:48:30;8.48;;;4.78;;
72797;SDS011;61084;55.816;37.036;2023-08-06T14:50:56;9.63;;;4.78;;
72797;SDS011;61084;55.816;37.036;2023-08-06T14:53:22;10.75;;;4.40;;
72797;SDS011;61084;55.816;37.036;2023-08-06T14:55:48;8.07;;;4.78;;
72797;SDS011;61084;55.816;37.036;2023-08-06T14:58:14;7.75;;;4.30;;
72797;SDS011;61084;55.816;37.036;2023-08-06T15:00:40;11.35;;;4.00;;
72797;SDS011;61084;55.816;37.036;2023-08-06T15:03:06;8.23;;;4.30;;
72797;SDS011;61084;55.816;37.036;2023-08-06T15:05:31;6.50;;;3.90;;
72797;SDS011;61084;55.816;37.036;2023-08-06T15:07:57;9.25;;;4.25;;
72797;SDS011;61084;55.816;37.036;2023-08-06T15:10:23;9.35;;;4.15;;
72797;SDS011;61084;55.816;37.036;2023-08-06T15:12:49;8.05;;;4.53;;
72797;SDS011;61084;55.816;37.036;2023-08-06T15:15:15;7.90;;;4.07;;